sensor_id;sensor_type;location;lat;lon;timestamp;pressure;altitude;pressure_sealevel;temperature;humidity
84382;BME280;74572;51.834;5.820;2024-01-15T00:02:09;100387.16;;;0.65;88.12
84382;BME280;74572;51.834;5.820;2024-01-15T00:04:41;100389.63;;;0.55;88.09
84382;BME280;74572;51.834;5.820;2024-01-15T00:07:09;100386.34;;;0.46;88.37
84382;BME280;74572;51.834;5.820;2024-01-15T00:09:35;100384.81;;;0.38;87.93
84382;BME280;74572;51.834;5.820;2024-01-15T00:12:01;100373.25;;;0.30;87.94
84382;BME280;74572;51.834;5.820;2024-01-15T00:14:27;100370.50;;;0.27;88.61
84382;BME280;74572;51.834;5.820;2024-01-15T00:16:54;100375.50;;;0.27;88.45
84382;BME280;74572;51.834;5.820;2024-01-15T00:19:24;100370.97;;;0.23;88.24
84382;BME280;74572;51.834;5.820;2024-01-15T00:21:50;100369.47;;;0.25;88.69
84382;BME280;74572;51.834;5.820;2024-01-15T00:24:16;100363.72;;;0.26;88.62
84382;BME280;74572;51.834;5.820;2024-01-15T00:26:43;100362.59;;;0.22;88.61
84382;BME280;74572;51.834;5.820;2024-01-15T00:29:09;100360.97;;;0.23;88.51
84382;BME280;74572;51.834;5.820;2024-01-15T00:31:39;100363.00;;;0.27;89.07
84382;BME280;74572;51.834;5.820;2024-01-15T00:34:05;100368.00;;;0.27;88.51
84382;BME280;74572;51.834;5.820;2024-01-15T00:36:30;100367.72;;;0.24;89.11
84382;BME280;74572;51.834;5.820;2024-01-15T00:38:56;100362.44;;;0.21;88.86
84382;BME280;74572;51.834;5.820;2024-01-15T00:41:22;100358.59;;;0.24;88.66
84382;BME280;74572;51.834;5.820;2024-01-15T00:43:50;100360.69;;;0.20;88.83
84382;BME280;74572;51.834;5.820;2024-01-15T00:46:18;100356.94;;;0.15;88.71
84382;BME280;74572;51.834;5.820;2024-01-15T00:48:46;100360.19;;;0.14;89.23
84382;BME280;74572;51.834;5.820;2024-01-15T00:51:12;100352.41;;;0.11;89.22
84382;BME280;74572;51.834;5.820;2024-01-15T00:53:39;100344.66;;;0.08;88.70
84382;BME280;74572;51.834;5.820;2024-01-15T00:56:05;100345.38;;;0.07;88.54
84382;BME280;74572;51.834;5.820;2024-01-15T00:58:33;100342.47;;;0.02;89.39
84382;BME280;74572;51.834;5.820;2024-01-15T01:00:58;100326.72;;;0.03;89.01
84382;BME280;74572;51.834;5.820;2024-01-15T01:03:24;100332.34;;;0.00;88.72
84382;BME280;74572;51.834;5.820;2024-01-15T01:05:51;100337.09;;;-0.03;88.88
84382;BME280;74572;51.834;5.820;2024-01-15T01:08:18;100325.81;;;-0.08;88.84
84382;BME280;74572;51.834;5.820;2024-01-15T01:10:44;100327.31;;;-0.10;89.05
84382;BME280;74572;51.834;5.820;2024-01-15T01:13:10;100319.94;;;-0.08;88.83
84382;BME280;74572;51.834;5.820;2024-01-15T01:15:38;100313.25;;;-0.18;88.44
84382;BME280;74572;51.834;5.820;2024-01-15T01:18:05;100322.78;;;-0.14;89.11
84382;BME280;74572;51.834;5.820;2024-01-15T01:20:31;100312.50;;;-0.17;89.11
84382;BME280;74572;51.834;5.820;2024-01-15T01:22:56;100315.75;;;-0.18;88.79
84382;BME280;74572;51.834;5.820;2024-01-15T01:25:22;100313.00;;;-0.21;89.06
84382;BME280;74572;51.834;5.820;2024-01-15T01:27:54;100311.25;;;-0.22;89.13
84382;BME280;74572;51.834;5.820;2024-01-15T01:30:27;100312.75;;;-0.24;88.54
84382;BME280;74572;51.834;5.820;2024-01-15T01:32:54;100313.22;;;-0.28;88.70
84382;BME280;74572;51.834;5.820;2024-01-15T01:35:19;100311.72;;;-0.26;88.97
84382;BME280;74572;51.834;5.820;2024-01-15T01:37:45;100312.00;;;-0.23;89.75
84382;BME280;74572;51.834;5.820;2024-01-15T01:40:11;100319.25;;;-0.16;89.52
84382;BME280;74572;51.834;5.820;2024-01-15T01:42:36;100318.94;;;-0.10;90.10
84382;BME280;74572;51.834;5.820;2024-01-15T01:45:02;100323.34;;;0.03;90.32
84382;BME280;74572;51.834;5.820;2024-01-15T01:47:31;100323.41;;;0.13;90.12
84382;BME280;74572;51.834;5.820;2024-01-15T01:49:56;100325.19;;;0.14;89.70
84382;BME280;74572;51.834;5.820;2024-01-15T01:52:22;100314.63;;;0.08;89.07
84382;BME280;74572;51.834;5.820;2024-01-15T01:54:48;100322.63;;;0.04;89.50
84382;BME280;74572;51.834;5.820;2024-01-15T01:57:13;100319.75;;;-0.01;89.53
84382;BME280;74572;51.834;5.820;2024-01-15T01:59:40;100316.84;;;-0.06;89.01
84382;BME280;74572;51.834;5.820;2024-01-15T02:02:06;100318.94;;;-0.10;89.07
84382;BME280;74572;51.834;5.820;2024-01-15T02:04:33;100326.16;;;-0.13;89.21
84382;BME280;74572;51.834;5.820;2024-01-15T02:06:59;100319.13;;;-0.17;89.37
84382;BME280;74572;51.834;5.820;2024-01-15T02:09:25;100321.03;;;-0.15;89.22
84382;BME280;74572;51.834;5.820;2024-01-15T02:11:52;100322.28;;;-0.20;89.26
84382;BME280;74572;51.834;5.820;2024-01-15T02:14:21;100322.00;;;-0.23;88.83
84382;BME280;74572;51.834;5.820;2024-01-15T02:16:47;100321.44;;;-0.29;89.04
84382;BME280;74572;51.834;5.820;2024-01-15T02:19:16;100318.25;;;-0.37;88.38
84382;BME280;74572;51.834;5.820;2024-01-15T02:21:42;100315.91;;;-0.35;89.35
84382;BME280;74572;51.834;5.820;2024-01-15T02:24:08;100316.66;;;-0.36;89.26
84382;BME280;74572;51.834;5.820;2024-01-15T02:26:33;100322.16;;;-0.40;89.25
84382;BME280;74572;51.834;5.820;2024-01-15T02:29:01;100318.63;;;-0.42;88.79
84382;BME280;74572;51.834;5.820;2024-01-15T02:31:27;100323.91;;;-0.39;89.66
84382;BME280;74572;51.834;5.820;2024-01-15T02:33:53;100311.19;;;-0.32;89.79
84382;BME280;74572;51.834;5.820;2024-01-15T02:36:18;100310.91;;;-0.35;89.30
84382;BME280;74572;51.834;5.820;2024-01-15T02:38:43;100316.66;;;-0.36;89.24
84382;BME280;74572;51.834;5.820;2024-01-15T02:41:10;100328.25;;;-0.37;89.44
84382;BME280;74572;51.834;5.820;2024-01-15T02:43:36;100317.88;;;-0.41;88.88
84382;BME280;74572;51.834;5.820;2024-01-15T02:46:01;100325.16;;;-0.34;89.19
84382;BME280;74572;51.834;5.820;2024-01-15T02:48:27;100326.19;;;-0.32;89.18
84382;BME280;74572;51.834;5.820;2024-01-15T02:50:52;100320.16;;;-0.34;89.28
84382;BME280;74572;51.834;5.820;2024-01-15T02:53:18;100314.78;;;-0.39;89.27
84382;BME280;74572;51.834;5.820;2024-01-15T02:55:43;100319.28;;;-0.35;89.01
84382;BME280;74572;51.834;5.820;2024-01-15T02:58:08;100323.69;;;-0.32;89.23
84382;BME280;74572;51.834;5.820;2024-01-15T03:00:35;100328.19;;;-0.28;89.44
84382;BME280;74572;51.834;5.820;2024-01-15T03:03:01;100327.88;;;-0.22;89.57
84382;BME280;74572;51.834;5.820;2024-01-15T03:05:27;100314.88;;;-0.18;89.89
84382;BME280;74572;51.834;5.820;2024-01-15T03:07:54;100323.31;;;-0.08;89.75
84382;BME280;74572;51.834;5.820;2024-01-15T03:10:19;100316.09;;;-0.05;89.76
84382;BME280;74572;51.834;5.820;2024-01-15T03:12:45;100325.63;;;-0.01;89.54
84382;BME280;74572;51.834;5.820;2024-01-15T03:15:11;100325.63;;;-0.01;90.01
84382;BME280;74572;51.834;5.820;2024-01-15T03:17:37;100319.59;;;-0.03;89.37
84382;BME280;74572;51.834;5.820;2024-01-15T03:20:04;100324.00;;;0.00;89.32
84382;BME280;74572;51.834;5.820;2024-01-15T03:22:29;100329.34;;;-0.06;89.33
84382;BME280;74572;51.834;5.820;2024-01-15T03:24:55;100329.47;;;-0.04;89.38
84382;BME280;74572;51.834;5.820;2024-01-15T03:27:21;100324.59;;;-0.03;89.28
84382;BME280;74572;51.834;5.820;2024-01-15T03:29:46;100320.63;;;-0.01;89.83
84382;BME280;74572;51.834;5.820;2024-01-15T03:32:13;100321.88;;;0.05;89.21
84382;BME280;74572;51.834;5.820;2024-01-15T03:34:38;100330.19;;;0.14;89.81
84382;BME280;74572;51.834;5.820;2024-01-15T03:37:05;100329.06;;;0.20;89.74
84382;BME280;74572;51.834;5.820;2024-01-15T03:39:30;100321.06;;;0.24;89.06
84382;BME280;74572;51.834;5.820;2024-01-15T03:41:56;100315.47;;;0.27;89.11
84382;BME280;74572;51.834;5.820;2024-01-15T03:44:22;100314.09;;;0.30;89.77
84382;BME280;74572;51.834;5.820;2024-01-15T03:46:48;100310.47;;;0.27;89.22
84382;BME280;74572;51.834;5.820;2024-01-15T03:49:14;100300.66;;;0.20;88.88
84382;BME280;74572;51.834;5.820;2024-01-15T03:51:40;100288.41;;;0.13;88.97
84382;BME280;74572;51.834;5.820;2024-01-15T03:54:06;100294.03;;;0.10;88.92
84382;BME280;74572;51.834;5.820;2024-01-15T03:56:32;100276.13;;;0.06;88.97
84382;BME280;74572;51.834;5.820;2024-01-15T03:58:57;100287.41;;;0.11;89.15
84382;BME280;74572;51.834;5.820;2024-01-15T04:01:23;100286.66;;;0.12;88.76
84382;BME280;74572;51.834;5.820;2024-01-15T04:03:48;100282.13;;;0.08;88.45
84382;BME280;74572;51.834;5.820;2024-01-15T04:06:14;100286.72;;;0.03;88.75
84382;BME280;74572;51.834;5.820;2024-01-15T04:08:39;100277.59;;;-0.07;88.58
84382;BME280;74572;51.834;5.820;2024-01-15T04:11:04;100282.44;;;-0.08;88.90
84382;BME280;74572;51.834;5.820;2024-01-15T04:13:33;100282.19;;;-0.11;88.55
84382;BME280;74572;51.834;5.820;2024-01-15T04:16:00;100279.81;;;-0.10;88.92
84382;BME280;74572;51.834;5.820;2024-01-15T04:18:26;100275.69;;;-0.09;89.07
84382;BME280;74572;51.834;5.820;2024-01-15T04:20:51;100266.56;;;-0.09;89.04
84382;BME280;74572;51.834;5.820;2024-01-15T04:23:17;100269.81;;;-0.10;88.92
84382;BME280;74572;51.834;5.820;2024-01-15T04:25:43;100266.03;;;-0.15;88.35
84382;BME280;74572;51.834;5.820;2024-01-15T04:28:09;100262.53;;;-0.17;88.44
84382;BME280;74572;51.834;5.820;2024-01-15T04:30:34;100261.50;;;-0.19;88.79
84382;BME280;74572;51.834;5.820;2024-01-15T04:33:00;100251.78;;;-0.16;88.96
84382;BME280;74572;51.834;5.820;2024-01-15T04:35:26;100249.81;;;-0.10;89.13
84382;BME280;74572;51.834;5.820;2024-01-15T04:37:51;100265.69;;;-0.09;89.30
84382;BME280;74572;51.834;5.820;2024-01-15T04:40:17;100264.09;;;0.02;89.40
84382;BME280;74572;51.834;5.820;2024-01-15T04:42:42;100253.41;;;0.13;89.54
84382;BME280;74572;51.834;5.820;2024-01-15T04:45:11;100258.56;;;0.24;88.97
84382;BME280;74572;51.834;5.820;2024-01-15T04:47:36;100252.19;;;0.28;89.04
84382;BME280;74572;51.834;5.820;2024-01-15T04:50:04;100259.06;;;0.30;88.62
84382;BME280;74572;51.834;5.820;2024-01-15T04:52:30;100256.72;;;0.32;88.85
84382;BME280;74572;51.834;5.820;2024-01-15T04:54:55;100262.09;;;0.37;88.97
84382;BME280;74572;51.834;5.820;2024-01-15T04:57:21;100253.34;;;0.42;88.28
84382;BME280;74572;51.834;5.820;2024-01-15T04:59:46;100253.59;;;0.45;88.33
84382;BME280;74572;51.834;5.820;2024-01-15T05:02:12;100256.22;;;0.46;88.28
84382;BME280;74572;51.834;5.820;2024-01-15T05:04:37;100244.72;;;0.48;88.44
84382;BME280;74572;51.834;5.820;2024-01-15T05:07:02;100239.72;;;0.48;88.58
84382;BME280;74572;51.834;5.820;2024-01-15T05:09:29;100239.72;;;0.48;88.26
84382;BME280;74572;51.834;5.820;2024-01-15T05:11:55;100235.47;;;0.47;88.11
84382;BME280;74572;51.834;5.820;2024-01-15T05:14:20;100233.09;;;0.49;88.53
84382;BME280;74572;51.834;5.820;2024-01-15T05:16:49;100225.72;;;0.50;88.33
84382;BME280;74572;51.834;5.820;2024-01-15T05:19:15;100218.56;;;0.45;88.85
84382;BME280;74572;51.834;5.820;2024-01-15T05:21:41;100217.44;;;0.41;88.52
84382;BME280;74572;51.834;5.820;2024-01-15T05:24:08;100226.22;;;0.36;88.05
84382;BME280;74572;51.834;5.820;2024-01-15T05:26:33;100228.44;;;0.33;88.06
84382;BME280;74572;51.834;5.820;2024-01-15T05:28:59;100225.94;;;0.33;88.64
84382;BME280;74572;51.834;5.820;2024-01-15T05:31:24;100229.19;;;0.32;88.66
84382;BME280;74572;51.834;5.820;2024-01-15T05:33:50;100221.44;;;0.29;89.03
84382;BME280;74572;51.834;5.820;2024-01-15T05:36:15;100218.44;;;0.33;88.76
84382;BME280;74572;51.834;5.820;2024-01-15T05:38:41;100214.53;;;0.26;88.49
84382;BME280;74572;51.834;5.820;2024-01-15T05:41:07;100203.41;;;0.13;88.33
84382;BME280;74572;51.834;5.820;2024-01-15T05:43:32;100214.63;;;0.08;88.65
84382;BME280;74572;51.834;5.820;2024-01-15T05:45:58;100209.00;;;0.00;88.49
84382;BME280;74572;51.834;5.820;2024-01-15T05:48:23;100214.00;;;0.00;89.15
84382;BME280;74572;51.834;5.820;2024-01-15T05:50:49;100211.13;;;0.06;89.18
84382;BME280;74572;51.834;5.820;2024-01-15T05:53:14;100216.16;;;0.16;89.28
84382;BME280;74572;51.834;5.820;2024-01-15T05:55:41;100225.91;;;0.23;88.86
84382;BME280;74572;51.834;5.820;2024-01-15T05:58:06;100223.66;;;0.26;88.99
84382;BME280;74572;51.834;5.820;2024-01-15T06:00:32;100221.06;;;0.34;89.50
84382;BME280;74572;51.834;5.820;2024-01-15T06:03:01;100227.44;;;0.41;88.92
84382;BME280;74572;51.834;5.820;2024-01-15T06:05:26;100224.19;;;0.42;88.64
84382;BME280;74572;51.834;5.820;2024-01-15T06:07:52;100215.69;;;0.40;88.63
84382;BME280;74572;51.834;5.820;2024-01-15T06:10:17;100213.06;;;0.39;88.89
84382;BME280;74572;51.834;5.820;2024-01-15T06:12:43;100217.22;;;0.38;88.96
84382;BME280;74572;51.834;5.820;2024-01-15T06:15:09;100207.19;;;0.38;89.15
84382;BME280;74572;51.834;5.820;2024-01-15T06:17:35;100215.06;;;0.43;89.13
84382;BME280;74572;51.834;5.820;2024-01-15T06:20:01;100209.44;;;0.45;88.95
84382;BME280;74572;51.834;5.820;2024-01-15T06:22:28;100210.56;;;0.49;89.09
84382;BME280;74572;51.834;5.820;2024-01-15T06:24:53;100207.19;;;0.48;89.25
84382;BME280;74572;51.834;5.820;2024-01-15T06:27:19;100209.09;;;0.51;88.88
84382;BME280;74572;51.834;5.820;2024-01-15T06:29:45;100203.19;;;0.50;88.79
84382;BME280;74572;51.834;5.820;2024-01-15T06:32:32;100206.59;;;0.51;88.88
84382;BME280;74572;51.834;5.820;2024-01-15T06:34:59;100214.22;;;0.52;89.30
84382;BME280;74572;51.834;5.820;2024-01-15T06:37:24;100204.09;;;0.51;88.86
84382;BME280;74572;51.834;5.820;2024-01-15T06:39:50;100199.94;;;0.51;89.30
84382;BME280;74572;51.834;5.820;2024-01-15T06:42:15;100205.22;;;0.54;88.95
84382;BME280;74572;51.834;5.820;2024-01-15T06:44:41;100211.22;;;0.56;89.23
84382;BME280;74572;51.834;5.820;2024-01-15T06:47:06;100205.47;;;0.57;89.04
84382;BME280;74572;51.834;5.820;2024-01-15T06:49:32;100212.97;;;0.57;88.60
84382;BME280;74572;51.834;5.820;2024-01-15T06:51:58;100208.19;;;0.60;88.75
84382;BME280;74572;51.834;5.820;2024-01-15T06:54:24;100216.72;;;0.62;89.02
84382;BME280;74572;51.834;5.820;2024-01-15T06:56:51;100213.47;;;0.63;88.79
84382;BME280;74572;51.834;5.820;2024-01-15T06:59:17;100218.59;;;0.65;88.56
84382;BME280;74572;51.834;5.820;2024-01-15T07:01:42;100233.47;;;0.63;89.19
84382;BME280;74572;51.834;5.820;2024-01-15T07:04:09;100234.50;;;0.65;88.88
84382;BME280;74572;51.834;5.820;2024-01-15T07:06:35;100231.34;;;0.58;88.74
84382;BME280;74572;51.834;5.820;2024-01-15T07:09:01;100239.09;;;0.51;88.89
84382;BME280;74572;51.834;5.820;2024-01-15T07:11:30;100232.44;;;0.41;88.64
84382;BME280;74572;51.834;5.820;2024-01-15T07:13:55;100233.31;;;0.31;89.32
84382;BME280;74572;51.834;5.820;2024-01-15T07:16:21;100226.44;;;0.29;89.02
84382;BME280;74572;51.834;5.820;2024-01-15T07:18:46;100221.03;;;0.24;89.43
84382;BME280;74572;51.834;5.820;2024-01-15T07:21:16;100225.16;;;0.24;89.28
84382;BME280;74572;51.834;5.820;2024-01-15T07:23:42;100214.03;;;0.20;89.48
84382;BME280;74572;51.834;5.820;2024-01-15T07:26:09;100220.16;;;0.24;89.13
84382;BME280;74572;51.834;5.820;2024-01-15T07:28:34;100215.91;;;0.23;89.10
84382;BME280;74572;51.834;5.820;2024-01-15T07:31:00;100217.66;;;0.24;89.48
84382;BME280;74572;51.834;5.820;2024-01-15T07:33:27;100231.78;;;0.23;89.20
84382;BME280;74572;51.834;5.820;2024-01-15T07:35:53;100231.44;;;0.19;88.82
84382;BME280;74572;51.834;5.820;2024-01-15T07:38:18;100225.41;;;0.17;88.80
84382;BME280;74572;51.834;5.820;2024-01-15T07:40:45;100221.91;;;0.15;89.01
84382;BME280;74572;51.834;5.820;2024-01-15T07:43:14;100213.66;;;0.16;88.88
84382;BME280;74572;51.834;5.820;2024-01-15T07:45:42;100208.41;;;0.13;89.23
84382;BME280;74572;51.834;5.820;2024-01-15T07:48:07;100203.41;;;0.13;88.62
84382;BME280;74572;51.834;5.820;2024-01-15T07:50:34;100202.66;;;0.14;89.45
84382;BME280;74572;51.834;5.820;2024-01-15T07:53:00;100205.16;;;0.14;88.91
84382;BME280;74572;51.834;5.820;2024-01-15T07:55:33;100208.41;;;0.13;88.63
84382;BME280;74572;51.834;5.820;2024-01-15T07:57:59;100222.16;;;0.18;88.93
84382;BME280;74572;51.834;5.820;2024-01-15T08:00:24;100232.28;;;0.19;89.25
84382;BME280;74572;51.834;5.820;2024-01-15T08:02:50;100239.16;;;0.22;89.20
84382;BME280;74572;51.834;5.820;2024-01-15T08:05:17;100259.44;;;0.25;89.11
84382;BME280;74572;51.834;5.820;2024-01-15T08:07:43;100256.78;;;0.23;88.94
84382;BME280;74572;51.834;5.820;2024-01-15T08:10:10;100256.94;;;0.25;89.02
84382;BME280;74572;51.834;5.820;2024-01-15T08:12:35;100245.44;;;0.27;89.08
84382;BME280;74572;51.834;5.820;2024-01-15T08:15:01;100236.44;;;0.29;88.75
84382;BME280;74572;51.834;5.820;2024-01-15T08:17:26;100232.22;;;0.38;88.78
84382;BME280;74572;51.834;5.820;2024-01-15T08:19:54;100235.22;;;0.44;88.85
84382;BME280;74572;51.834;5.820;2024-01-15T08:22:19;100244.13;;;0.51;88.48
84382;BME280;74572;51.834;5.820;2024-01-15T08:24:45;100235.72;;;0.60;88.29
84382;BME280;74572;51.834;5.820;2024-01-15T08:27:11;100225.75;;;0.71;87.87
84382;BME280;74572;51.834;5.820;2024-01-15T08:29:36;100223.75;;;0.77;87.76
84382;BME280;74572;51.834;5.820;2024-01-15T08:32:03;100225.72;;;0.81;87.81
84382;BME280;74572;51.834;5.820;2024-01-15T08:34:29;100220.25;;;0.75;87.60
84382;BME280;74572;51.834;5.820;2024-01-15T08:36:54;100230.25;;;0.75;87.50
84382;BME280;74572;51.834;5.820;2024-01-15T08:39:19;100225.75;;;0.71;87.91
84382;BME280;74572;51.834;5.820;2024-01-15T08:41:45;100224.38;;;0.74;87.94
84382;BME280;74572;51.834;5.820;2024-01-15T08:44:14;100222.22;;;0.79;87.67
84382;BME280;74572;51.834;5.820;2024-01-15T08:46:41;100221.50;;;0.90;87.45
84382;BME280;74572;51.834;5.820;2024-01-15T08:49:08;100230.72;;;1.01;87.29
84382;BME280;74572;51.834;5.820;2024-01-15T08:51:35;100227.97;;;1.08;86.98
84382;BME280;74572;51.834;5.820;2024-01-15T08:54:03;100241.75;;;1.13;86.71
84382;BME280;74572;51.834;5.820;2024-01-15T08:56:30;100235.59;;;1.20;86.47
84382;BME280;74572;51.834;5.820;2024-01-15T08:58:55;100222.19;;;1.19;86.54
84382;BME280;74572;51.834;5.820;2024-01-15T09:01:22;100228.22;;;1.21;86.90
84382;BME280;74572;51.834;5.820;2024-01-15T09:03:49;100225.69;;;1.21;86.30
84382;BME280;74572;51.834;5.820;2024-01-15T09:06:16;100229.22;;;1.23;86.24
84382;BME280;74572;51.834;5.820;2024-01-15T09:08:42;100232.59;;;1.24;86.13
84382;BME280;74572;51.834;5.820;2024-01-15T09:11:07;100249.50;;;1.26;86.41
84382;BME280;74572;51.834;5.820;2024-01-15T09:13:33;100242.59;;;1.24;85.95
84382;BME280;74572;51.834;5.820;2024-01-15T09:15:58;100239.97;;;1.22;85.93
84382;BME280;74572;51.834;5.820;2024-01-15T09:18:25;100248.00;;;1.28;86.23
84382;BME280;74572;51.834;5.820;2024-01-15T09:20:50;100245.13;;;1.34;85.59
84382;BME280;74572;51.834;5.820;2024-01-15T09:23:16;100248.47;;;1.45;85.78
84382;BME280;74572;51.834;5.820;2024-01-15T09:25:42;100243.91;;;1.61;85.46
84382;BME280;74572;51.834;5.820;2024-01-15T09:28:07;100248.41;;;1.65;84.93
84382;BME280;74572;51.834;5.820;2024-01-15T09:30:33;100242.00;;;1.68;84.87
84382;BME280;74572;51.834;5.820;2024-01-15T09:32:59;100242.97;;;1.81;84.16
84382;BME280;74572;51.834;5.820;2024-01-15T09:35:26;100247.09;;;1.90;84.15
84382;BME280;74572;51.834;5.820;2024-01-15T09:37:51;100253.84;;;1.91;84.39
84382;BME280;74572;51.834;5.820;2024-01-15T09:40:17;100247.41;;;1.95;84.32
84382;BME280;74572;51.834;5.820;2024-01-15T09:42:46;100243.84;;;1.81;84.26
84382;BME280;74572;51.834;5.820;2024-01-15T09:45:11;100244.22;;;1.76;84.50
84382;BME280;74572;51.834;5.820;2024-01-15T09:47:37;100253.78;;;2.01;83.61
84382;BME280;74572;51.834;5.820;2024-01-15T09:50:10;100256.84;;;3.08;81.53
84382;BME280;74572;51.834;5.820;2024-01-15T09:52:47;100251.66;;;6.41;73.43
84382;BME280;74572;51.834;5.820;2024-01-15T09:55:13;100250.44;;;6.21;74.54
84382;BME280;74572;51.834;5.820;2024-01-15T09:57:41;100258.03;;;4.91;76.62
84382;BME280;74572;51.834;5.820;2024-01-15T10:00:07;100256.50;;;3.72;79.70
84382;BME280;74572;51.834;5.820;2024-01-15T10:02:36;100258.97;;;3.13;81.17
84382;BME280;74572;51.834;5.820;2024-01-15T10:05:07;100263.13;;;2.80;82.15
84382;BME280;74572;51.834;5.820;2024-01-15T10:07:35;100251.59;;;2.60;82.95
84382;BME280;74572;51.834;5.820;2024-01-15T10:10:01;100254.09;;;2.38;83.00
84382;BME280;74572;51.834;5.820;2024-01-15T10:12:28;100253.59;;;2.42;84.01
84382;BME280;74572;51.834;5.820;2024-01-15T10:14:56;100247.38;;;3.04;81.88
84382;BME280;74572;51.834;5.820;2024-01-15T10:17:21;100251.22;;;3.22;81.48
84382;BME280;74572;51.834;5.820;2024-01-15T10:19:47;100241.75;;;2.85;81.98
84382;BME280;74572;51.834;5.820;2024-01-15T10:22:14;100250.94;;;2.96;81.51
84382;BME280;74572;51.834;5.820;2024-01-15T10:24:41;100257.03;;;3.91;80.23
84382;BME280;74572;51.834;5.820;2024-01-15T10:27:10;100260.00;;;3.74;79.90
84382;BME280;74572;51.834;5.820;2024-01-15T10:29:36;100264.78;;;3.24;80.81
84382;BME280;74572;51.834;5.820;2024-01-15T10:32:09;100254.31;;;2.85;81.75
84382;BME280;74572;51.834;5.820;2024-01-15T10:34:38;100250.78;;;2.49;82.31
84382;BME280;74572;51.834;5.820;2024-01-15T10:37:10;100245.47;;;2.34;82.79
84382;BME280;74572;51.834;5.820;2024-01-15T10:39:36;100238.88;;;2.68;82.56
84382;BME280;74572;51.834;5.820;2024-01-15T10:42:03;100225.53;;;3.03;81.81
84382;BME280;74572;51.834;5.820;2024-01-15T10:44:29;100225.00;;;3.77;78.92
84382;BME280;74572;51.834;5.820;2024-01-15T10:46:55;100226.28;;;3.95;78.90
84382;BME280;74572;51.834;5.820;2024-01-15T10:49:21;100228.91;;;3.97;78.34
84382;BME280;74572;51.834;5.820;2024-01-15T10:51:50;100228.09;;;4.09;78.09
84382;BME280;74572;51.834;5.820;2024-01-15T10:54:19;100230.56;;;4.33;78.00
84382;BME280;74572;51.834;5.820;2024-01-15T10:56:45;100233.22;;;4.59;78.43
84382;BME280;74572;51.834;5.820;2024-01-15T10:59:13;100239.31;;;4.88;76.95
84382;BME280;74572;51.834;5.820;2024-01-15T11:01:38;100233.41;;;4.62;77.43
84382;BME280;74572;51.834;5.820;2024-01-15T11:04:05;100237.34;;;4.83;76.73
84382;BME280;74572;51.834;5.820;2024-01-15T11:06:42;100236.41;;;5.33;76.86
84382;BME280;74572;51.834;5.820;2024-01-15T11:09:08;100236.16;;;5.94;74.67
84382;BME280;74572;51.834;5.820;2024-01-15T11:11:35;100224.47;;;6.09;73.88
84382;BME280;74572;51.834;5.820;2024-01-15T11:14:03;100224.25;;;6.90;71.28
84382;BME280;74572;51.834;5.820;2024-01-15T11:16:57;100230.88;;;6.73;71.50
84382;BME280;74572;51.834;5.820;2024-01-15T11:19:25;100226.44;;;7.13;72.25
84382;BME280;74572;51.834;5.820;2024-01-15T11:21:50;100227.16;;;7.11;72.18
84382;BME280;74572;51.834;5.820;2024-01-15T11:27:01;100226.22;;;5.71;72.60
84382;BME280;74572;51.834;5.820;2024-01-15T11:31:58;100248.97;;;4.81;75.06
84382;BME280;74572;51.834;5.820;2024-01-15T11:34:51;100249.19;;;4.84;74.29
84382;BME280;74572;51.834;5.820;2024-01-15T11:37:18;100253.53;;;4.37;74.58
84382;BME280;74572;51.834;5.820;2024-01-15T11:39:44;100260.41;;;4.03;76.57
84382;BME280;74572;51.834;5.820;2024-01-15T11:42:11;100261.97;;;3.55;76.65
84382;BME280;74572;51.834;5.820;2024-01-15T11:44:38;100257.78;;;3.20;77.48
84382;BME280;74572;51.834;5.820;2024-01-15T11:47:08;100256.50;;;2.92;77.96
84382;BME280;74572;51.834;5.820;2024-01-15T11:49:58;100254.59;;;2.77;78.63
84382;BME280;74572;51.834;5.820;2024-01-15T11:52:35;100254.31;;;2.85;78.21
84382;BME280;74572;51.834;5.820;2024-01-15T11:55:36;100259.19;;;3.05;78.08
84382;BME280;74572;51.834;5.820;2024-01-15T11:58:08;100262.38;;;3.26;77.07
84382;BME280;74572;51.834;5.820;2024-01-15T12:00:42;100255.59;;;3.48;76.36
84382;BME280;74572;51.834;5.820;2024-01-15T12:03:08;100249.50;;;3.44;76.14
84382;BME280;74572;51.834;5.820;2024-01-15T12:05:37;100260.47;;;3.11;77.33
84382;BME280;74572;51.834;5.820;2024-01-15T12:08:02;100269.03;;;2.80;78.09
84382;BME280;74572;51.834;5.820;2024-01-15T12:10:28;100277.22;;;2.56;78.51
84382;BME280;74572;51.834;5.820;2024-01-15T12:15:26;100264.78;;;2.57;78.38
84382;BME280;74572;51.834;5.820;2024-01-15T12:17:54;100278.38;;;2.71;78.25
84382;BME280;74572;51.834;5.820;2024-01-15T12:20:19;100270.19;;;2.73;78.26
84382;BME280;74572;51.834;5.820;2024-01-15T12:22:46;100280.31;;;2.63;78.46
84382;BME280;74572;51.834;5.820;2024-01-15T12:25:12;100268.78;;;2.43;79.24
84382;BME280;74572;51.834;5.820;2024-01-15T12:27:38;100268.25;;;2.26;78.98
84382;BME280;74572;51.834;5.820;2024-01-15T12:30:04;100278.38;;;2.05;80.44
84382;BME280;74572;51.834;5.820;2024-01-15T12:32:30;100280.38;;;2.10;80.23
84382;BME280;74572;51.834;5.820;2024-01-15T12:34:55;100278.31;;;2.16;80.13
84382;BME280;74572;51.834;5.820;2024-01-15T12:37:21;100279.81;;;2.14;80.00
84382;BME280;74572;51.834;5.820;2024-01-15T12:39:47;100284.63;;;2.11;80.00
84382;BME280;74572;51.834;5.820;2024-01-15T12:42:16;100286.38;;;2.12;80.41
84382;BME280;74572;51.834;5.820;2024-01-15T12:44:43;100285.06;;;2.17;80.35
84382;BME280;74572;51.834;5.820;2024-01-15T12:47:12;100293.91;;;2.12;80.53
84382;BME280;74572;51.834;5.820;2024-01-15T12:49:38;100301.09;;;1.97;80.98
84382;BME280;74572;51.834;5.820;2024-01-15T12:52:08;100306.84;;;2.06;80.58
84382;BME280;74572;51.834;5.820;2024-01-15T12:54:34;100304.59;;;2.31;80.27
84382;BME280;74572;51.834;5.820;2024-01-15T12:56:59;100313.25;;;2.56;79.97
84382;BME280;74572;51.834;5.820;2024-01-15T12:59:25;100305.34;;;2.73;79.30
84382;BME280;74572;51.834;5.820;2024-01-15T13:01:51;100302.34;;;2.89;78.93
84382;BME280;74572;51.834;5.820;2024-01-15T13:04:24;100296.16;;;2.96;78.55